createdAt,value
2019-03-21T00:01:15.351Z,48.83
2019-03-21T00:03:43.905Z,57.03
2019-03-21T00:06:15.016Z,58.00
2019-03-21T00:08:44.560Z,53.50
2019-03-21T00:11:49.355Z,54.83
2019-03-21T00:14:23.648Z,54.18
2019-03-21T00:16:52.132Z,56.20
2019-03-21T00:19:20.605Z,53.50
2019-03-21T00:21:49.050Z,46.02
2019-03-21T00:24:17.530Z,49.65
2019-03-21T00:26:45.987Z,55.67
2019-03-21T00:29:14.472Z,58.15
2019-03-21T00:31:42.937Z,56.63
2019-03-21T00:34:11.391Z,54.38
2019-03-21T00:36:39.859Z,51.45
2019-03-21T00:39:09.945Z,55.33
2019-03-21T00:41:38.495Z,50.90
2019-03-21T00:44:17.637Z,51.08
2019-03-21T00:49:04.875Z,44.35
2019-03-21T00:51:33.358Z,50.25
2019-03-21T00:54:01.895Z,52.08
2019-03-21T00:56:30.355Z,50.63
2019-03-21T00:58:58.815Z,50.48
2019-03-21T01:01:27.263Z,46.95
2019-03-21T01:03:55.719Z,51.73
2019-03-21T01:06:24.176Z,54.88
2019-03-21T01:08:52.648Z,51.88
2019-03-21T01:11:21.102Z,52.15
2019-03-21T01:13:49.565Z,54.60
2019-03-21T01:16:18.091Z,55.55
2019-03-21T01:18:47.583Z,50.73
2019-03-21T01:21:16.035Z,51.70
2019-03-21T01:23:44.490Z,51.60
2019-03-21T01:26:14.694Z,50.67
2019-03-21T01:28:43.223Z,51.42
2019-03-21T01:31:11.687Z,52.90
2019-03-21T01:33:40.135Z,52.50
2019-03-21T01:36:08.883Z,54.75
2019-03-21T01:38:37.342Z,50.43
2019-03-21T01:41:08.827Z,51.33
2019-03-21T01:43:37.275Z,50.88
2019-03-21T01:46:11.413Z,49.43
2019-03-21T01:48:39.960Z,47.23
2019-03-21T01:51:09.079Z,50.10
2019-03-21T01:53:37.531Z,49.45
2019-03-21T01:56:05.975Z,49.53
2019-03-21T01:58:34.435Z,51.20
2019-03-21T02:01:02.892Z,48.40
2019-03-21T02:03:31.383Z,50.12
2019-03-21T02:05:59.859Z,50.65
2019-03-21T02:08:28.321Z,47.08
2019-03-21T02:10:56.755Z,47.20
2019-03-21T02:13:25.207Z,47.58
2019-03-21T02:15:53.676Z,45.00
2019-03-21T02:18:22.131Z,43.05
2019-03-21T02:20:50.583Z,45.48
2019-03-21T02:23:19.041Z,43.48
2019-03-21T02:25:47.491Z,47.05
2019-03-21T02:28:15.945Z,42.35
2019-03-21T02:30:46.704Z,42.80
2019-03-21T02:33:21.021Z,43.13
2019-03-21T02:35:49.534Z,43.38
2019-03-21T02:38:17.994Z,45.12
2019-03-21T02:40:47.900Z,47.17
2019-03-21T02:43:16.422Z,42.60
2019-03-21T02:45:44.889Z,48.28
2019-03-21T02:48:13.336Z,47.03
2019-03-21T02:50:43.532Z,48.52
2019-03-21T02:53:11.998Z,52.08
2019-03-21T02:55:40.435Z,49.88
2019-03-21T02:58:08.905Z,46.13
2019-03-21T03:00:39.656Z,43.33
2019-03-21T03:03:08.399Z,43.45
2019-03-21T03:05:37.548Z,44.95
2019-03-21T03:08:07.249Z,43.80
2019-03-21T03:10:44.478Z,35.43
2019-03-21T03:13:12.980Z,42.08
2019-03-21T03:15:42.444Z,40.35
2019-03-21T03:18:19.318Z,39.00
2019-03-21T03:20:47.829Z,40.75
2019-03-21T03:23:16.285Z,44.18
2019-03-21T03:25:44.741Z,44.03
2019-03-21T03:28:34.212Z,42.88
2019-03-21T03:31:02.720Z,43.28
2019-03-21T03:33:31.212Z,43.05
2019-03-21T03:35:59.674Z,43.08
2019-03-21T03:38:28.225Z,39.42
2019-03-21T03:41:04.953Z,44.08
2019-03-21T03:43:33.435Z,45.50
2019-03-21T03:46:01.887Z,46.33
2019-03-21T03:48:30.334Z,46.15
2019-03-21T03:50:58.785Z,45.05
2019-03-21T03:53:27.232Z,45.05
2019-03-21T03:55:55.759Z,47.67
2019-03-21T03:58:29.080Z,47.25
2019-03-21T04:00:58.203Z,45.50
2019-03-21T04:03:28.008Z,45.63
2019-03-21T04:05:56.678Z,43.70
2019-03-21T04:08:25.193Z,39.45
2019-03-21T04:10:54.870Z,46.45
2019-03-21T04:13:23.394Z,42.78
2019-03-21T04:15:53.811Z,44.88
2019-03-21T04:18:23.972Z,44.77
2019-03-21T04:21:00.748Z,46.95
2019-03-21T04:23:29.280Z,44.03
2019-03-21T04:26:09.795Z,45.25
2019-03-21T04:31:05.919Z,44.87
2019-03-21T04:33:34.391Z,47.80
2019-03-21T04:36:02.837Z,41.83
2019-03-21T04:38:31.308Z,46.35
2019-03-21T04:40:59.766Z,42.53
2019-03-21T04:43:28.238Z,45.35
2019-03-21T04:46:03.397Z,41.63
2019-03-21T04:48:26.879Z,48.65
2019-03-21T04:50:55.720Z,43.40
2019-03-21T04:53:24.199Z,42.15
2019-03-21T04:55:52.651Z,45.33
2019-03-21T04:58:21.107Z,43.92
2019-03-21T05:01:10.428Z,44.50
2019-03-21T05:03:38.897Z,46.85
2019-03-21T05:06:07.419Z,38.70
2019-03-21T05:08:35.907Z,42.35
2019-03-21T05:11:04.427Z,38.70
2019-03-21T05:13:32.868Z,34.60
2019-03-21T05:16:01.329Z,37.57
2019-03-21T05:18:35.885Z,40.98
2019-03-21T05:21:07.867Z,33.73
2019-03-21T05:23:36.339Z,34.98
2019-03-21T05:26:05.623Z,30.65
2019-03-21T05:28:34.083Z,32.20
2019-03-21T05:31:08.485Z,30.17
2019-03-21T05:33:36.930Z,27.22
2019-03-21T05:36:05.467Z,31.23
2019-03-21T05:38:34.054Z,29.72
2019-03-21T05:41:02.508Z,27.60
2019-03-21T05:43:43.267Z,28.42
2019-03-21T05:46:11.735Z,28.02
2019-03-21T05:48:40.189Z,28.15
2019-03-21T05:51:08.643Z,25.63
2019-03-21T05:53:37.123Z,26.97
2019-03-21T05:56:05.641Z,28.25
2019-03-21T05:58:34.137Z,27.05
2019-03-21T06:01:08.658Z,29.52
2019-03-21T06:03:50.541Z,28.80
2019-03-21T06:06:37.143Z,30.02
2019-03-21T06:09:08.802Z,30.37
2019-03-21T06:11:39.708Z,32.53
2019-03-21T06:14:08.233Z,34.27
2019-03-21T06:16:37.846Z,35.10
2019-03-21T06:19:21.357Z,32.38
2019-03-21T06:21:52.871Z,29.87
2019-03-21T06:24:44.995Z,33.08
2019-03-21T06:27:30.787Z,31.45
2019-03-21T06:29:59.249Z,34.67
2019-03-21T06:32:28.619Z,31.48
2019-03-21T06:34:57.377Z,36.42
2019-03-21T06:37:28.440Z,33.73
2019-03-21T06:39:56.543Z,32.53
2019-03-21T06:42:25.207Z,28.12
2019-03-21T06:44:53.655Z,34.58
2019-03-21T06:47:22.294Z,31.85
2019-03-21T06:49:50.744Z,29.20
2019-03-21T06:52:19.196Z,30.97
2019-03-21T06:54:47.658Z,29.12
2019-03-21T06:57:16.114Z,30.10
2019-03-21T06:59:44.579Z,32.42
2019-03-21T07:02:13.111Z,30.08
2019-03-21T07:04:41.555Z,30.32
2019-03-21T07:07:10.007Z,31.20
2019-03-21T07:09:38.464Z,33.67
2019-03-21T07:12:07.011Z,31.05
2019-03-21T07:14:35.470Z,31.75
2019-03-21T07:17:03.941Z,30.70
2019-03-21T07:19:32.396Z,31.52
2019-03-21T07:22:00.880Z,30.37
2019-03-21T07:24:29.331Z,32.60
2019-03-21T07:26:57.787Z,34.67
2019-03-21T07:29:26.245Z,33.00
2019-03-21T07:31:54.716Z,30.90
2019-03-21T07:34:23.173Z,33.50
2019-03-21T07:36:51.631Z,32.17
2019-03-21T07:39:20.091Z,37.67
2019-03-21T07:41:48.551Z,35.88
2019-03-21T07:44:16.996Z,38.85
2019-03-21T07:46:45.459Z,37.53
2019-03-21T07:49:13.995Z,36.10
2019-03-21T07:51:44.938Z,32.50
2019-03-21T07:54:12.638Z,33.00
2019-03-21T07:56:41.099Z,33.50
2019-03-21T07:59:09.568Z,32.28
2019-03-21T08:01:38.123Z,31.45
2019-03-21T08:04:06.643Z,30.08
2019-03-21T08:06:35.141Z,26.20
2019-03-21T08:09:05.066Z,24.30
2019-03-21T08:11:52.891Z,26.40
2019-03-21T08:14:21.339Z,26.60
2019-03-21T08:16:49.793Z,27.15
2019-03-21T08:19:18.259Z,28.47
2019-03-21T08:21:46.712Z,27.40
2019-03-21T08:24:15.287Z,23.38
2019-03-21T08:26:43.748Z,26.10
2019-03-21T08:29:12.211Z,20.80
2019-03-21T08:31:40.686Z,23.40
2019-03-21T08:34:09.226Z,27.85
2019-03-21T08:36:37.695Z,25.02
2019-03-21T08:39:07.787Z,27.40
2019-03-21T08:41:36.400Z,28.02
2019-03-21T08:44:04.921Z,24.90
2019-03-21T08:46:33.383Z,25.60
2019-03-21T08:49:01.870Z,22.25
2019-03-21T08:51:30.379Z,23.80
2019-03-21T08:53:58.840Z,23.83
2019-03-21T08:56:27.316Z,23.87
2019-03-21T08:58:55.779Z,24.55
2019-03-21T09:01:24.249Z,23.05
2019-03-21T09:03:52.763Z,24.07
2019-03-21T09:06:21.221Z,21.75
2019-03-21T09:08:49.836Z,24.27
2019-03-21T09:11:18.288Z,20.82
2019-03-21T09:13:46.764Z,21.73
2019-03-21T09:16:15.221Z,21.25
2019-03-21T09:18:43.667Z,19.30
2019-03-21T09:21:19.557Z,16.20
2019-03-21T09:23:42.324Z,14.13
2019-03-21T09:26:10.859Z,16.43
2019-03-21T09:28:39.309Z,16.82
2019-03-21T09:31:07.764Z,16.63
2019-03-21T09:33:36.227Z,15.65
2019-03-21T09:36:04.773Z,17.13
2019-03-21T09:38:33.220Z,17.20
2019-03-21T09:41:01.663Z,17.17
2019-03-21T09:43:30.135Z,17.17
2019-03-21T09:45:58.598Z,18.77
2019-03-21T09:48:27.060Z,18.02
2019-03-21T09:50:56.018Z,17.48
2019-03-21T09:53:24.464Z,15.72
2019-03-21T09:55:52.927Z,20.30
2019-03-21T09:58:21.383Z,17.75
2019-03-21T10:00:49.840Z,19.37
2019-03-21T10:03:18.304Z,19.07
2019-03-21T10:05:46.751Z,20.37
2019-03-21T10:08:15.205Z,19.57
2019-03-21T10:10:43.656Z,20.65
2019-03-21T10:13:12.112Z,19.10
2019-03-21T10:15:40.575Z,19.77
2019-03-21T10:18:09.043Z,21.82
2019-03-21T10:20:37.494Z,22.95
2019-03-21T10:23:05.941Z,22.80
2019-03-21T10:25:34.412Z,19.02
2019-03-21T10:28:02.867Z,22.48
2019-03-21T10:30:42.320Z,22.10
2019-03-21T10:33:12.544Z,21.97
2019-03-21T10:35:41.051Z,23.18
2019-03-21T10:38:09.572Z,23.47
2019-03-21T10:40:38.180Z,22.22
2019-03-21T10:43:06.799Z,23.42
2019-03-21T10:45:35.528Z,17.55
2019-03-21T10:48:04.543Z,21.80
2019-03-21T10:50:40.904Z,19.98
2019-03-21T10:53:09.513Z,24.07
2019-03-21T10:55:38.190Z,21.90
2019-03-21T10:58:07.600Z,24.32
2019-03-21T11:00:36.223Z,23.87
2019-03-21T11:03:04.932Z,23.60
2019-03-21T11:05:33.379Z,22.82
2019-03-21T11:08:02.664Z,23.83
2019-03-21T11:10:31.124Z,20.23
2019-03-21T11:12:59.563Z,20.68
2019-03-21T11:15:28.130Z,23.65
2019-03-21T11:17:56.743Z,21.87
2019-03-21T11:20:36.595Z,21.42
2019-03-21T11:23:06.083Z,21.15
2019-03-21T11:25:34.612Z,22.33
2019-03-21T11:28:03.142Z,23.73
2019-03-21T11:30:41.731Z,21.57
2019-03-21T11:33:10.609Z,24.92
2019-03-21T11:35:39.054Z,25.10
2019-03-21T11:38:07.636Z,21.77
2019-03-21T11:40:36.172Z,26.95
2019-03-21T11:43:06.901Z,23.98
2019-03-21T11:45:35.436Z,18.95
2019-03-21T11:48:04.615Z,22.42
2019-03-21T11:50:33.111Z,22.50
2019-03-21T11:53:01.800Z,22.17
2019-03-21T11:55:30.275Z,22.20
2019-03-21T11:57:58.746Z,23.00
2019-03-21T12:00:27.219Z,22.58
2019-03-21T12:02:55.741Z,22.70
2019-03-21T12:05:24.188Z,23.47
2019-03-21T12:07:52.651Z,22.90
2019-03-21T12:10:21.107Z,21.35
2019-03-21T12:12:49.576Z,20.68
2019-03-21T12:15:18.589Z,20.75
2019-03-21T12:17:47.039Z,21.82
2019-03-21T12:20:30.647Z,21.02
2019-03-21T12:22:59.169Z,18.67
2019-03-21T12:25:27.765Z,18.12
2019-03-21T12:27:56.308Z,16.52
2019-03-21T12:30:33.061Z,17.15
2019-03-21T12:33:01.517Z,17.90
2019-03-21T12:35:30.046Z,16.80
2019-03-21T12:37:58.531Z,18.42
2019-03-21T12:40:27.225Z,17.07
2019-03-21T12:42:55.671Z,12.60
2019-03-21T12:45:24.181Z,15.88
2019-03-21T12:47:52.627Z,15.28
2019-03-21T12:50:21.094Z,12.18
2019-03-21T12:52:49.540Z,15.28
2019-03-21T12:55:18.000Z,13.05
2019-03-21T12:57:46.455Z,15.13
2019-03-21T13:00:15.663Z,15.70
2019-03-21T13:02:44.115Z,13.43
2019-03-21T13:05:27.566Z,14.35
2019-03-21T13:07:56.018Z,14.47
2019-03-21T13:10:24.483Z,14.35
2019-03-21T13:12:52.947Z,13.90
2019-03-21T13:15:29.506Z,16.70
2019-03-21T13:17:51.651Z,15.13
2019-03-21T13:20:20.101Z,15.38
2019-03-21T13:22:52.851Z,15.43
2019-03-21T13:25:18.752Z,17.45
2019-03-21T13:27:47.282Z,15.88
2019-03-21T13:30:15.907Z,15.58
2019-03-21T13:32:46.956Z,15.35
2019-03-21T13:35:14.593Z,14.55
2019-03-21T13:37:43.045Z,16.02
2019-03-21T13:40:11.748Z,15.88
2019-03-21T13:42:40.207Z,15.85
2019-03-21T13:45:08.861Z,16.82
2019-03-21T13:47:37.320Z,14.70
2019-03-21T13:50:09.983Z,15.13
2019-03-21T13:52:38.472Z,13.85
2019-03-21T13:55:09.174Z,14.18
2019-03-21T13:57:37.630Z,15.60
2019-03-21T14:00:14.723Z,14.55
2019-03-21T14:02:43.168Z,14.47
2019-03-21T14:05:11.711Z,16.60
2019-03-21T14:07:40.156Z,15.18
2019-03-21T14:10:10.351Z,15.32
2019-03-21T14:12:38.811Z,14.35
2019-03-21T14:15:10.023Z,15.48
2019-03-21T14:17:38.463Z,16.02
2019-03-21T14:20:09.271Z,15.75
2019-03-21T14:22:37.715Z,15.93
2019-03-21T14:25:07.868Z,16.40
2019-03-21T14:27:36.398Z,15.68
2019-03-21T14:30:13.494Z,15.75
2019-03-21T14:32:41.954Z,16.32
2019-03-21T14:35:10.551Z,15.75
2019-03-21T14:37:39.015Z,16.67
2019-03-21T14:40:10.497Z,17.15
2019-03-21T14:42:38.976Z,15.65
2019-03-21T14:45:09.622Z,16.77
2019-03-21T14:47:38.079Z,18.82
2019-03-21T14:50:09.518Z,17.60
2019-03-21T14:52:37.975Z,16.67
2019-03-21T14:55:08.099Z,18.00
2019-03-21T14:57:36.623Z,17.73
2019-03-21T15:00:13.694Z,18.37
2019-03-21T15:02:42.158Z,17.98
2019-03-21T15:05:11.242Z,18.35
2019-03-21T15:07:39.715Z,18.27
2019-03-21T15:10:11.171Z,17.40
2019-03-21T15:12:39.649Z,18.00
2019-03-21T15:15:10.701Z,16.48
2019-03-21T15:17:39.155Z,17.02
2019-03-21T15:20:10.314Z,18.82
2019-03-21T15:22:38.767Z,17.07
2019-03-21T15:25:09.456Z,16.02
2019-03-21T15:27:37.906Z,15.60
2019-03-21T15:30:09.494Z,16.20
2019-03-21T15:32:38.183Z,16.90
2019-03-21T15:35:09.085Z,17.65
2019-03-21T15:37:37.530Z,14.78
2019-03-21T15:40:11.168Z,15.48
2019-03-21T15:42:39.654Z,16.23
2019-03-21T15:45:22.394Z,16.32
2019-03-21T15:47:41.723Z,15.70
2019-03-21T15:50:15.977Z,16.32
2019-03-21T15:52:44.452Z,16.05
2019-03-21T15:55:12.942Z,16.32
2019-03-21T15:57:41.508Z,19.37
2019-03-21T16:00:11.288Z,16.73
2019-03-21T16:05:08.520Z,16.90
2019-03-21T16:07:36.959Z,17.37
2019-03-21T16:10:06.879Z,16.00
2019-03-21T16:12:35.318Z,17.15
2019-03-21T16:15:06.200Z,17.42
2019-03-21T16:17:34.659Z,16.30
2019-03-21T16:20:05.003Z,18.65
2019-03-21T16:22:33.465Z,18.67
2019-03-21T16:25:01.912Z,19.10
2019-03-21T16:27:30.416Z,18.30
2019-03-21T16:29:58.938Z,17.15
2019-03-21T16:32:27.404Z,19.55
2019-03-21T16:34:55.873Z,18.00
2019-03-21T16:37:24.353Z,19.65
2019-03-21T16:39:52.799Z,18.82
2019-03-21T16:42:21.259Z,19.20
2019-03-21T16:44:49.757Z,20.60
2019-03-21T16:47:18.203Z,18.87
2019-03-21T16:49:46.660Z,19.15
2019-03-21T16:52:15.104Z,17.10
2019-03-21T16:54:43.580Z,17.25
2019-03-21T16:57:12.066Z,17.60
2019-03-21T16:59:40.512Z,16.93
2019-03-21T17:02:09.052Z,17.62
2019-03-21T17:04:37.496Z,19.02
2019-03-21T17:07:05.976Z,18.05
2019-03-21T17:09:34.492Z,17.67
2019-03-21T17:12:03.072Z,16.05
2019-03-21T17:14:31.523Z,18.07
2019-03-21T17:16:59.978Z,18.30
2019-03-21T17:19:28.461Z,16.62
2019-03-21T17:21:56.906Z,16.20
2019-03-21T17:24:29.620Z,16.77
2019-03-21T17:26:55.621Z,15.85
2019-03-21T17:29:24.151Z,16.77
2019-03-21T17:31:52.598Z,17.73
2019-03-21T17:34:21.048Z,18.15
2019-03-21T17:36:49.523Z,16.02
2019-03-21T17:39:17.976Z,16.82
2019-03-21T17:41:46.440Z,17.42
2019-03-21T17:44:15.744Z,18.52
2019-03-21T17:46:44.212Z,17.55
2019-03-21T17:49:12.670Z,17.27
2019-03-21T17:51:41.113Z,17.60
2019-03-21T17:54:09.567Z,17.90
2019-03-21T17:56:38.045Z,18.32
2019-03-21T17:59:06.495Z,19.50
2019-03-21T18:01:34.968Z,17.70
2019-03-21T18:04:03.492Z,19.57
2019-03-21T18:06:31.947Z,18.05
2019-03-21T18:09:00.395Z,17.57
2019-03-21T18:11:28.850Z,18.00
2019-03-21T18:13:57.331Z,17.12
2019-03-21T18:16:25.936Z,18.42
2019-03-21T18:18:54.415Z,18.32
2019-03-21T18:21:22.868Z,17.48
2019-03-21T18:23:51.440Z,17.50
2019-03-21T18:26:19.934Z,19.30
2019-03-21T18:28:48.379Z,20.62
2019-03-21T18:31:16.835Z,18.32
2019-03-21T18:33:45.299Z,19.07
2019-03-21T18:36:13.773Z,18.73
2019-03-21T18:38:42.225Z,19.15
2019-03-21T18:41:10.692Z,18.73
2019-03-21T18:43:39.158Z,19.98
2019-03-21T18:46:07.707Z,19.47
2019-03-21T18:48:36.159Z,20.62
2019-03-21T18:51:04.786Z,20.70
2019-03-21T18:53:33.246Z,19.57
2019-03-21T18:56:01.713Z,20.03
2019-03-21T18:58:30.324Z,19.98
2019-03-21T19:00:58.957Z,19.30
2019-03-21T19:03:27.497Z,20.92
2019-03-21T19:05:56.524Z,20.14
2019-03-21T19:08:25.039Z,22.73
2019-03-21T19:10:53.492Z,20.72
2019-03-21T19:13:21.939Z,21.75
2019-03-21T19:15:50.391Z,20.97
2019-03-21T19:18:18.847Z,22.73
2019-03-21T19:20:47.402Z,22.02
2019-03-21T19:23:15.932Z,21.48
2019-03-21T19:25:44.415Z,21.82
2019-03-21T19:28:12.886Z,20.97
2019-03-21T19:30:41.407Z,21.02
2019-03-21T19:33:09.908Z,22.27
2019-03-21T19:35:38.352Z,22.95
2019-03-21T19:38:06.831Z,22.75
2019-03-21T19:40:35.416Z,23.55
2019-03-21T19:43:04.015Z,24.47
2019-03-21T19:45:32.639Z,21.70
2019-03-21T19:48:01.109Z,23.07
2019-03-21T19:50:29.555Z,22.95
2019-03-21T19:52:58.035Z,22.95
2019-03-21T19:55:31.228Z,24.65
2019-03-21T19:57:56.751Z,25.17
2019-03-21T20:00:25.203Z,26.65
2019-03-21T20:02:53.940Z,26.60
2019-03-21T20:05:22.401Z,26.75
2019-03-21T20:07:50.903Z,26.70
2019-03-21T20:10:20.963Z,29.23
2019-03-21T20:12:49.485Z,26.17
2019-03-21T20:15:18.375Z,28.15
2019-03-21T20:17:46.909Z,29.60
2019-03-21T20:20:16.895Z,28.27
2019-03-21T20:22:45.584Z,27.73
2019-03-21T20:25:14.599Z,28.05
2019-03-21T20:27:43.183Z,26.52
2019-03-21T20:30:21.642Z,28.55
2019-03-21T20:32:50.213Z,28.85
2019-03-21T20:35:18.769Z,29.07
2019-03-21T20:37:47.290Z,31.00
2019-03-21T20:40:17.900Z,30.68
2019-03-21T20:42:46.420Z,30.80
2019-03-21T20:45:17.280Z,29.25
2019-03-21T20:47:45.743Z,28.92
2019-03-21T20:50:14.354Z,30.08
2019-03-21T20:52:42.819Z,28.20
2019-03-21T20:55:11.582Z,29.65
2019-03-21T20:57:40.131Z,27.98
2019-03-21T21:00:17.335Z,31.45
2019-03-21T21:02:45.786Z,30.57
2019-03-21T21:05:14.372Z,29.30
2019-03-21T21:07:42.823Z,31.12
2019-03-21T21:10:12.329Z,31.77
2019-03-21T21:12:40.808Z,33.37
2019-03-21T21:15:11.859Z,30.50
2019-03-21T21:17:42.880Z,29.35
2019-03-21T21:20:12.933Z,31.93
2019-03-21T21:22:41.527Z,31.87
2019-03-21T21:25:10.122Z,31.75
2019-03-21T21:27:48.701Z,32.13
2019-03-21T21:30:16.875Z,32.67
2019-03-21T21:32:45.336Z,30.10
2019-03-21T21:35:13.905Z,30.05
2019-03-21T21:37:42.439Z,31.35
2019-03-21T21:40:12.125Z,31.87
2019-03-21T21:42:40.632Z,29.25
2019-03-21T21:45:14.236Z,30.32
2019-03-21T21:47:42.726Z,31.45
2019-03-21T21:50:13.410Z,32.85
2019-03-21T21:52:42.452Z,31.40
2019-03-21T21:55:11.327Z,31.60
2019-03-21T21:57:39.805Z,32.20
2019-03-21T22:00:11.365Z,31.02
2019-03-21T22:02:39.851Z,32.03
2019-03-21T22:05:08.539Z,34.73
2019-03-21T22:07:36.995Z,33.28
2019-03-21T22:10:07.481Z,31.77
2019-03-21T22:12:36.376Z,31.35
2019-03-21T22:15:08.234Z,33.33
2019-03-21T22:17:36.707Z,34.53
2019-03-21T22:20:06.811Z,33.95
2019-03-21T22:25:03.609Z,30.60
2019-03-21T22:27:32.056Z,32.83
2019-03-21T22:30:00.551Z,34.88
2019-03-21T22:32:29.038Z,34.53
2019-03-21T22:34:57.543Z,34.38
2019-03-21T22:37:25.991Z,34.95
2019-03-21T22:39:54.471Z,33.33
2019-03-21T22:42:23.045Z,35.23
2019-03-21T22:44:51.500Z,34.38
2019-03-21T22:47:19.950Z,35.60
2019-03-21T22:49:48.399Z,35.43
2019-03-21T22:52:16.854Z,37.80
2019-03-21T22:54:45.299Z,36.68
2019-03-21T22:57:13.803Z,35.05
2019-03-21T22:59:42.326Z,38.30
2019-03-21T23:02:10.839Z,38.38
2019-03-21T23:04:39.302Z,36.93
2019-03-21T23:07:07.743Z,35.05
2019-03-21T23:09:36.202Z,34.15
2019-03-21T23:12:04.665Z,35.20
2019-03-21T23:14:33.112Z,36.93
2019-03-21T23:17:01.571Z,35.78
2019-03-21T23:19:30.043Z,37.88
2019-03-21T23:21:58.565Z,35.50
2019-03-21T23:24:27.026Z,37.55
2019-03-21T23:26:55.507Z,38.42
2019-03-21T23:29:23.951Z,35.88
2019-03-21T23:31:52.423Z,34.43
2019-03-21T23:34:20.867Z,33.42
2019-03-21T23:36:49.348Z,34.83
2019-03-21T23:39:17.860Z,34.95
2019-03-21T23:41:46.314Z,33.10
2019-03-21T23:44:14.772Z,34.73
2019-03-21T23:46:43.252Z,35.13
2019-03-21T23:49:11.695Z,34.25
2019-03-21T23:51:40.161Z,36.08
2019-03-21T23:54:08.611Z,28.52
2019-03-21T23:56:37.063Z,28.90
2019-03-21T23:59:05.524Z,30.75
